sensor_id;sensor_type;location;lat;lon;timestamp;pressure;altitude;pressure_sealevel;temperature;humidity
23589;BME280;11972;48.078;11.876;2023-05-19T00:01:33;95777.81;;;9.48;100.00
23589;BME280;11972;48.078;11.876;2023-05-19T00:05:38;95778.16;;;9.44;100.00
23589;BME280;11972;48.078;11.876;2023-05-19T00:09:44;95772.38;;;9.41;100.00
23589;BME280;11972;48.078;11.876;2023-05-19T00:13:45;95774.19;;;9.40;100.00
23589;BME280;11972;48.078;11.876;2023-05-19T00:17:48;95762.66;;;9.41;100.00
23589;BME280;11972;48.078;11.876;2023-05-19T00:21:48;95754.94;;;9.40;100.00
23589;BME280;11972;48.078;11.876;2023-05-19T00:25:49;95754.94;;;9.40;100.00
23589;BME280;11972;48.078;11.876;2023-05-19T00:29:49;95743.56;;;9.39;100.00
23589;BME280;11972;48.078;11.876;2023-05-19T00:33:49;95749.16;;;9.36;100.00
23589;BME280;11972;48.078;11.876;2023-05-19T00:37:51;95742.25;;;9.35;100.00
23589;BME280;11972;48.078;11.876;2023-05-19T00:41:51;95736.00;;;9.36;100.00
23589;BME280;11972;48.078;11.876;2023-05-19T00:45:51;95729.72;;;9.37;100.00
23589;BME280;11972;48.078;11.876;2023-05-19T00:49:52;95731.72;;;9.35;100.00
23589;BME280;11972;48.078;11.876;2023-05-19T00:53:52;95727.78;;;9.31;100.00
23589;BME280;11972;48.078;11.876;2023-05-19T00:57:54;95718.22;;;9.30;100.00
23589;BME280;11972;48.078;11.876;2023-05-19T01:01:55;95719.53;;;9.34;100.00
23589;BME280;11972;48.078;11.876;2023-05-19T01:05:55;95721.16;;;9.35;100.00
23589;BME280;11972;48.078;11.876;2023-05-19T01:09:56;95717.88;;;9.33;100.00
23589;BME280;11972;48.078;11.876;2023-05-19T01:13:56;95728.41;;;9.33;100.00
23589;BME280;11972;48.078;11.876;2023-05-19T01:18:04;95719.53;;;9.34;100.00
23589;BME280;11972;48.078;11.876;2023-05-19T01:26:58;95716.91;;;9.34;100.00
23589;BME280;11972;48.078;11.876;2023-05-19T01:31:08;95718.22;;;9.30;100.00
23589;BME280;11972;48.078;11.876;2023-05-19T01:35:11;95729.22;;;9.34;100.00
23589;BME280;11972;48.078;11.876;2023-05-19T01:39:15;95723.00;;;9.35;100.00
23589;BME280;11972;48.078;11.876;2023-05-19T01:43:18;95730.91;;;9.35;100.00
23589;BME280;11972;48.078;11.876;2023-05-19T01:47:18;95725.94;;;9.32;100.00
23589;BME280;11972;48.078;11.876;2023-05-19T01:51:19;95728.41;;;9.33;100.00
23589;BME280;11972;48.078;11.876;2023-05-19T01:55:19;95733.69;;;9.33;100.00
23589;BME280;11972;48.078;11.876;2023-05-19T02:07:58;95735.34;;;9.34;100.00
23589;BME280;11972;48.078;11.876;2023-05-19T02:16:04;95720.69;;;9.32;100.00
23589;BME280;11972;48.078;11.876;2023-05-19T02:20:06;95726.94;;;9.31;100.00
23589;BME280;11972;48.078;11.876;2023-05-19T02:24:08;95716.06;;;9.26;100.00
23589;BME280;11972;48.078;11.876;2023-05-19T02:28:09;95708.66;;;9.21;100.00
23589;BME280;11972;48.078;11.876;2023-05-19T02:32:10;95713.63;;;9.16;100.00
23589;BME280;11972;48.078;11.876;2023-05-19T02:36:10;95711.34;;;9.13;100.00
23589;BME280;11972;48.078;11.876;2023-05-19T02:40:13;95702.78;;;9.11;100.00
23589;BME280;11972;48.078;11.876;2023-05-19T02:44:13;95708.38;;;9.08;100.00
23589;BME280;11972;48.078;11.876;2023-05-19T02:48:14;95690.97;;;8.99;100.00
23589;BME280;11972;48.078;11.876;2023-05-19T02:52:14;95694.91;;;9.03;100.00
23589;BME280;11972;48.078;11.876;2023-05-19T02:56:14;95695.72;;;9.03;100.00
23589;BME280;11972;48.078;11.876;2023-05-19T03:00:15;95692.25;;;9.03;100.00
23589;BME280;11972;48.078;11.876;2023-05-19T03:04:15;95694.56;;;9.06;100.00
23589;BME280;11972;48.078;11.876;2023-05-19T03:08:19;95694.56;;;9.06;100.00
23589;BME280;11972;48.078;11.876;2023-05-19T03:12:19;95685.34;;;9.02;100.00
23589;BME280;11972;48.078;11.876;2023-05-19T03:16:20;95694.75;;;8.96;100.00
23589;BME280;11972;48.078;11.876;2023-05-19T03:20:21;95695.56;;;8.97;100.00
23589;BME280;11972;48.078;11.876;2023-05-19T03:24:21;95696.53;;;9.04;100.00
23589;BME280;11972;48.078;11.876;2023-05-19T03:28:22;95700.16;;;9.03;100.00
23589;BME280;11972;48.078;11.876;2023-05-19T03:32:22;95702.13;;;9.01;100.00
23589;BME280;11972;48.078;11.876;2023-05-19T03:36:22;95704.47;;;8.95;100.00
23589;BME280;11972;48.078;11.876;2023-05-19T03:40:23;95699.06;;;8.89;100.00
23589;BME280;11972;48.078;11.876;2023-05-19T03:44:23;95694.91;;;8.94;100.00
23589;BME280;11972;48.078;11.876;2023-05-19T03:48:24;95693.25;;;9.02;100.00
23589;BME280;11972;48.078;11.876;2023-05-19T03:52:24;95687.50;;;9.06;100.00
23589;BME280;11972;48.078;11.876;2023-05-19T03:56:24;95692.56;;;9.08;100.00
23589;BME280;11972;48.078;11.876;2023-05-19T04:00:26;95680.38;;;9.15;100.00
23589;BME280;11972;48.078;11.876;2023-05-19T04:04:26;95688.59;;;9.20;100.00
23589;BME280;11972;48.078;11.876;2023-05-19T04:08:27;95690.72;;;9.25;100.00
23589;BME280;11972;48.078;11.876;2023-05-19T04:12:27;95695.84;;;9.26;100.00
23589;BME280;11972;48.078;11.876;2023-05-19T04:16:28;95693.63;;;9.38;100.00
23589;BME280;11972;48.078;11.876;2023-05-19T04:20:28;95693.44;;;9.48;100.00
23589;BME280;11972;48.078;11.876;2023-05-19T04:24:28;95691.81;;;9.47;100.00
23589;BME280;11972;48.078;11.876;2023-05-19T04:28:29;95691.81;;;9.47;100.00
23589;BME280;11972;48.078;11.876;2023-05-19T04:32:29;95697.41;;;9.43;100.00
23589;BME280;11972;48.078;11.876;2023-05-19T04:36:30;95703.66;;;9.51;100.00
23589;BME280;11972;48.078;11.876;2023-05-19T04:40:30;95699.69;;;9.55;100.00
23589;BME280;11972;48.078;11.876;2023-05-19T04:44:30;95699.94;;;9.68;100.00
23589;BME280;11972;48.078;11.876;2023-05-19T04:48:31;95700.72;;;9.77;100.00
23589;BME280;11972;48.078;11.876;2023-05-19T04:52:32;95700.06;;;9.75;100.00
23589;BME280;11972;48.078;11.876;2023-05-19T04:56:32;95698.91;;;9.77;100.00
23589;BME280;11972;48.078;11.876;2023-05-19T05:00:33;95689.88;;;9.72;100.00
23589;BME280;11972;48.078;11.876;2023-05-19T05:04:34;95680.16;;;9.72;100.00
23589;BME280;11972;48.078;11.876;2023-05-19T05:08:35;95684.72;;;9.78;100.00
23589;BME280;11972;48.078;11.876;2023-05-19T05:12:39;95673.19;;;9.79;100.00
23589;BME280;11972;48.078;11.876;2023-05-19T05:16:40;95682.38;;;9.83;100.00
23589;BME280;11972;48.078;11.876;2023-05-19T05:20:41;95688.91;;;9.95;100.00
23589;BME280;11972;48.078;11.876;2023-05-19T05:24:42;95668.13;;;10.01;100.00
23589;BME280;11972;48.078;11.876;2023-05-19T05:28:42;95671.03;;;10.06;100.00
23589;BME280;11972;48.078;11.876;2023-05-19T05:32:43;95664.31;;;10.26;100.00
23589;BME280;11972;48.078;11.876;2023-05-19T05:36:43;95658.84;;;10.51;100.00
23589;BME280;11972;48.078;11.876;2023-05-19T05:40:43;95666.63;;;10.67;100.00
23589;BME280;11972;48.078;11.876;2023-05-19T05:44:44;95662.84;;;10.84;100.00
23589;BME280;11972;48.078;11.876;2023-05-19T05:48:44;95672.41;;;10.85;100.00
23589;BME280;11972;48.078;11.876;2023-05-19T05:52:46;95673.88;;;10.88;100.00
23589;BME280;11972;48.078;11.876;2023-05-19T05:56:47;95678.44;;;11.09;100.00
23589;BME280;11972;48.078;11.876;2023-05-19T06:00:48;95670.06;;;11.20;100.00
23589;BME280;11972;48.078;11.876;2023-05-19T06:04:50;95667.03;;;11.38;100.00
23589;BME280;11972;48.078;11.876;2023-05-19T06:08:53;95681.81;;;11.47;100.00
23589;BME280;11972;48.078;11.876;2023-05-19T06:12:53;95668.66;;;11.68;100.00
23589;BME280;11972;48.078;11.876;2023-05-19T06:16:54;95672.28;;;11.67;100.00
23589;BME280;11972;48.078;11.876;2023-05-19T06:20:55;95678.22;;;11.70;100.00
23589;BME280;11972;48.078;11.876;2023-05-19T06:24:55;95678.00;;;12.01;100.00
23589;BME280;11972;48.078;11.876;2023-05-19T06:28:55;95677.50;;;12.33;100.00
23589;BME280;11972;48.078;11.876;2023-05-19T06:32:56;95669.56;;;12.55;100.00
23589;BME280;11972;48.078;11.876;2023-05-19T06:36:56;95680.59;;;12.58;100.00
23589;BME280;11972;48.078;11.876;2023-05-19T06:40:56;95689.38;;;12.80;100.00
23589;BME280;11972;48.078;11.876;2023-05-19T06:44:57;95679.53;;;13.02;100.00
23589;BME280;11972;48.078;11.876;2023-05-19T06:48:57;95672.94;;;13.61;100.00
23589;BME280;11972;48.078;11.876;2023-05-19T06:52:57;95679.88;;;14.03;100.00
23589;BME280;11972;48.078;11.876;2023-05-19T06:56:59;95674.97;;;14.07;100.00
23589;BME280;11972;48.078;11.876;2023-05-19T07:00:59;95687.94;;;13.40;100.00
23589;BME280;11972;48.078;11.876;2023-05-19T07:05:00;95683.88;;;13.79;100.00
23589;BME280;11972;48.078;11.876;2023-05-19T07:09:00;95671.38;;;14.41;100.00
23589;BME280;11972;48.078;11.876;2023-05-19T07:13:01;95676.94;;;14.93;100.00
23589;BME280;11972;48.078;11.876;2023-05-19T07:17:01;95671.03;;;14.91;100.00
23589;BME280;11972;48.078;11.876;2023-05-19T07:21:01;95672.66;;;14.65;100.00
23589;BME280;11972;48.078;11.876;2023-05-19T07:25:02;95684.72;;;13.93;100.00
23589;BME280;11972;48.078;11.876;2023-05-19T07:29:02;95672.97;;;14.15;100.00
23589;BME280;11972;48.078;11.876;2023-05-19T07:33:03;95681.22;;;14.67;100.00
23589;BME280;11972;48.078;11.876;2023-05-19T07:37:03;95670.94;;;14.24;100.00
23589;BME280;11972;48.078;11.876;2023-05-19T07:41:03;95677.28;;;14.36;100.00
23589;BME280;11972;48.078;11.876;2023-05-19T07:45:04;95678.97;;;14.64;100.00
23589;BME280;11972;48.078;11.876;2023-05-19T07:49:05;95675.09;;;14.67;100.00
23589;BME280;11972;48.078;11.876;2023-05-19T07:53:05;95678.78;;;15.12;100.00
23589;BME280;11972;48.078;11.876;2023-05-19T07:57:06;95683.03;;;15.33;100.00
23589;BME280;11972;48.078;11.876;2023-05-19T08:01:06;95669.13;;;15.24;100.00
23589;BME280;11972;48.078;11.876;2023-05-19T08:05:07;95675.50;;;14.83;100.00
23589;BME280;11972;48.078;11.876;2023-05-19T08:09:09;95681.97;;;14.34;100.00
23589;BME280;11972;48.078;11.876;2023-05-19T08:13:09;95679.91;;;14.23;100.00
23589;BME280;11972;48.078;11.876;2023-05-19T08:17:10;95681.53;;;14.18;100.00
23589;BME280;11972;48.078;11.876;2023-05-19T08:21:10;95677.50;;;14.48;100.00
23589;BME280;11972;48.078;11.876;2023-05-19T08:25:11;95686.56;;;14.94;100.00
23589;BME280;11972;48.078;11.876;2023-05-19T08:29:12;95683.28;;;14.78;100.00
23589;BME280;11972;48.078;11.876;2023-05-19T08:33:13;95671.81;;;14.71;100.00
23589;BME280;11972;48.078;11.876;2023-05-19T08:37:13;95677.28;;;14.43;100.00
23589;BME280;11972;48.078;11.876;2023-05-19T08:41:14;95679.00;;;13.89;100.00
23589;BME280;11972;48.078;11.876;2023-05-19T08:45:15;95670.75;;;13.30;100.00
23589;BME280;11972;48.078;11.876;2023-05-19T08:49:20;95671.09;;;12.92;100.00
23589;BME280;11972;48.078;11.876;2023-05-19T08:53:26;95674.25;;;13.37;100.00
23589;BME280;11972;48.078;11.876;2023-05-19T08:57:31;95672.66;;;13.43;100.00
23589;BME280;11972;48.078;11.876;2023-05-19T09:01:32;95667.81;;;13.18;100.00
23589;BME280;11972;48.078;11.876;2023-05-19T09:05:32;95675.31;;;13.84;100.00
23589;BME280;11972;48.078;11.876;2023-05-19T09:09:33;95673.41;;;14.46;100.00
23589;BME280;11972;48.078;11.876;2023-05-19T09:13:33;95670.00;;;14.92;100.00
23589;BME280;11972;48.078;11.876;2023-05-19T09:17:34;95658.97;;;14.81;100.00
23589;BME280;11972;48.078;11.876;2023-05-19T09:21:35;95662.81;;;14.52;100.00
23589;BME280;11972;48.078;11.876;2023-05-19T09:25:48;95671.00;;;14.97;100.00
23589;BME280;11972;48.078;11.876;2023-05-19T09:29:49;95659.81;;;15.73;100.00
23589;BME280;11972;48.078;11.876;2023-05-19T09:33:52;95648.81;;;16.40;100.00
23589;BME280;11972;48.078;11.876;2023-05-19T09:37:53;95648.56;;;16.79;100.00
23589;BME280;11972;48.078;11.876;2023-05-19T09:41:54;95644.31;;;16.97;100.00
23589;BME280;11972;48.078;11.876;2023-05-19T09:46:05;95656.47;;;17.11;100.00
23589;BME280;11972;48.078;11.876;2023-05-19T09:50:08;95659.06;;;16.43;100.00
23589;BME280;11972;48.078;11.876;2023-05-19T09:54:13;95644.06;;;16.10;100.00
23589;BME280;11972;48.078;11.876;2023-05-19T09:58:17;95651.13;;;15.91;100.00
23589;BME280;11972;48.078;11.876;2023-05-19T10:02:18;95649.66;;;16.33;100.00
23589;BME280;11972;48.078;11.876;2023-05-19T10:06:20;95647.75;;;16.72;100.00
23589;BME280;11972;48.078;11.876;2023-05-19T10:10:21;95649.88;;;16.63;100.00
23589;BME280;11972;48.078;11.876;2023-05-19T10:14:26;95655.94;;;16.14;100.00
23589;BME280;11972;48.078;11.876;2023-05-19T10:18:27;95649.47;;;15.97;100.00
23589;BME280;11972;48.078;11.876;2023-05-19T10:22:28;95651.91;;;16.36;100.00
23589;BME280;11972;48.078;11.876;2023-05-19T10:26:29;95652.91;;;16.42;100.00
23589;BME280;11972;48.078;11.876;2023-05-19T10:30:39;95644.84;;;16.49;100.00
23589;BME280;11972;48.078;11.876;2023-05-19T10:39:13;95635.81;;;16.50;100.00
23589;BME280;11972;48.078;11.876;2023-05-19T10:47:57;95641.88;;;16.95;100.00
23589;BME280;11972;48.078;11.876;2023-05-19T10:51:58;95635.69;;;16.95;100.00
23589;BME280;11972;48.078;11.876;2023-05-19T10:56:00;95632.09;;;16.82;100.00
23589;BME280;11972;48.078;11.876;2023-05-19T11:00:26;95639.75;;;15.64;100.00
23589;BME280;11972;48.078;11.876;2023-05-19T11:08:51;95636.75;;;16.62;100.00
23589;BME280;11972;48.078;11.876;2023-05-19T11:12:56;95625.06;;;16.63;100.00
23589;BME280;11972;48.078;11.876;2023-05-19T11:16:58;95634.75;;;17.07;100.00
23589;BME280;11972;48.078;11.876;2023-05-19T11:20:59;95635.84;;;15.73;100.00
23589;BME280;11972;48.078;11.876;2023-05-19T11:25:02;95630.28;;;14.97;100.00
23589;BME280;11972;48.078;11.876;2023-05-19T11:29:03;95626.63;;;15.62;100.00
23589;BME280;11972;48.078;11.876;2023-05-19T11:33:04;95621.75;;;16.36;100.00
23589;BME280;11972;48.078;11.876;2023-05-19T11:37:05;95617.59;;;16.72;100.00
23589;BME280;11972;48.078;11.876;2023-05-19T11:41:06;95624.97;;;16.76;100.00
23589;BME280;11972;48.078;11.876;2023-05-19T11:45:07;95632.03;;;16.32;100.00
23589;BME280;11972;48.078;11.876;2023-05-19T11:49:08;95636.53;;;16.38;100.00
23589;BME280;11972;48.078;11.876;2023-05-19T11:53:11;95635.22;;;16.48;100.00
23589;BME280;11972;48.078;11.876;2023-05-19T11:57:12;95627.34;;;16.59;100.00
23589;BME280;11972;48.078;11.876;2023-05-19T12:01:13;95620.34;;;16.33;100.00
23589;BME280;11972;48.078;11.876;2023-05-19T12:05:24;95637.25;;;15.82;100.00
23589;BME280;11972;48.078;11.876;2023-05-19T12:09:27;95637.31;;;15.56;100.00
23589;BME280;11972;48.078;11.876;2023-05-19T12:13:27;95637.31;;;15.56;100.00
23589;BME280;11972;48.078;11.876;2023-05-19T12:17:27;95629.31;;;15.69;100.00
23589;BME280;11972;48.078;11.876;2023-05-19T12:21:31;95636.34;;;15.30;100.00
23589;BME280;11972;48.078;11.876;2023-05-19T12:25:31;95629.22;;;15.24;100.00
23589;BME280;11972;48.078;11.876;2023-05-19T12:29:32;95636.72;;;15.54;100.00
23589;BME280;11972;48.078;11.876;2023-05-19T12:33:32;95635.00;;;15.79;100.00
23589;BME280;11972;48.078;11.876;2023-05-19T12:37:35;95639.72;;;15.77;100.00
23589;BME280;11972;48.078;11.876;2023-05-19T12:41:36;95634.28;;;15.46;100.00
23589;BME280;11972;48.078;11.876;2023-05-19T12:45:38;95629.97;;;15.45;100.00
23589;BME280;11972;48.078;11.876;2023-05-19T12:50:04;95623.38;;;15.67;100.00
23589;BME280;11972;48.078;11.876;2023-05-19T12:54:05;95621.91;;;16.98;100.00
23589;BME280;11972;48.078;11.876;2023-05-19T12:58:06;95614.53;;;17.18;100.00
23589;BME280;11972;48.078;11.876;2023-05-19T13:02:06;95605.69;;;16.74;100.00
23589;BME280;11972;48.078;11.876;2023-05-19T13:06:07;95613.69;;;16.18;100.00
23589;BME280;11972;48.078;11.876;2023-05-19T13:10:08;95596.72;;;16.37;100.00
23589;BME280;11972;48.078;11.876;2023-05-19T13:14:09;95614.28;;;17.20;100.00
23589;BME280;11972;48.078;11.876;2023-05-19T13:18:11;95606.63;;;18.69;100.00
23589;BME280;11972;48.078;11.876;2023-05-19T13:22:12;95603.28;;;18.85;100.00
23589;BME280;11972;48.078;11.876;2023-05-19T13:26:12;95590.47;;;18.87;100.00
23589;BME280;11972;48.078;11.876;2023-05-19T13:30:13;95591.31;;;19.11;100.00
23589;BME280;11972;48.078;11.876;2023-05-19T13:34:15;95592.66;;;19.49;100.00
23589;BME280;11972;48.078;11.876;2023-05-19T13:38:16;95578.28;;;19.03;100.00
23589;BME280;11972;48.078;11.876;2023-05-19T13:42:16;95588.81;;;17.42;100.00
23589;BME280;11972;48.078;11.876;2023-05-19T13:46:16;95591.34;;;17.37;100.00
23589;BME280;11972;48.078;11.876;2023-05-19T13:50:17;95578.09;;;18.09;100.00
23589;BME280;11972;48.078;11.876;2023-05-19T13:54:17;95571.13;;;18.62;100.00
23589;BME280;11972;48.078;11.876;2023-05-19T13:58:17;95567.81;;;17.82;100.00
23589;BME280;11972;48.078;11.876;2023-05-19T14:02:18;95568.78;;;17.51;100.00
23589;BME280;11972;48.078;11.876;2023-05-19T14:06:18;95574.44;;;17.92;100.00
23589;BME280;11972;48.078;11.876;2023-05-19T14:10:18;95566.63;;;18.20;100.00
23589;BME280;11972;48.078;11.876;2023-05-19T14:14:19;95578.22;;;18.56;100.00
23589;BME280;11972;48.078;11.876;2023-05-19T14:18:19;95558.22;;;19.17;100.00
23589;BME280;11972;48.078;11.876;2023-05-19T14:22:20;95562.41;;;19.13;100.00
23589;BME280;11972;48.078;11.876;2023-05-19T14:26:20;95553.28;;;19.38;100.00
23589;BME280;11972;48.078;11.876;2023-05-19T14:30:20;95550.13;;;19.52;100.00
23589;BME280;11972;48.078;11.876;2023-05-19T14:34:21;95544.78;;;19.52;100.00
23589;BME280;11972;48.078;11.876;2023-05-19T14:38:21;95540.97;;;19.37;100.00
23589;BME280;11972;48.078;11.876;2023-05-19T14:42:21;95549.47;;;19.33;100.00
23589;BME280;11972;48.078;11.876;2023-05-19T14:46:22;95548.16;;;19.48;100.00
23589;BME280;11972;48.078;11.876;2023-05-19T14:50:22;95550.69;;;19.66;100.00
23589;BME280;11972;48.078;11.876;2023-05-19T14:54:22;95545.09;;;19.56;100.00
23589;BME280;11972;48.078;11.876;2023-05-19T14:58:23;95545.53;;;19.76;100.00
23589;BME280;11972;48.078;11.876;2023-05-19T15:02:23;95547.13;;;19.89;100.00
23589;BME280;11972;48.078;11.876;2023-05-19T15:06:23;95540.13;;;20.33;100.00
23589;BME280;11972;48.078;11.876;2023-05-19T15:10:24;95538.97;;;20.97;100.00
23589;BME280;11972;48.078;11.876;2023-05-19T15:14:24;95543.00;;;21.55;100.00
23589;BME280;11972;48.078;11.876;2023-05-19T15:18:24;95532.63;;;21.03;100.00
23589;BME280;11972;48.078;11.876;2023-05-19T15:22:25;95527.13;;;21.53;100.00
23589;BME280;11972;48.078;11.876;2023-05-19T15:26:25;95526.78;;;22.21;100.00
23589;BME280;11972;48.078;11.876;2023-05-19T15:30:26;95515.53;;;22.61;100.00
23589;BME280;11972;48.078;11.876;2023-05-19T15:34:26;95522.56;;;21.54;100.00
23589;BME280;11972;48.078;11.876;2023-05-19T15:38:26;95526.91;;;21.16;100.00
23589;BME280;11972;48.078;11.876;2023-05-19T15:42:27;95517.00;;;19.99;100.00
23589;BME280;11972;48.078;11.876;2023-05-19T15:46:28;95521.84;;;20.47;100.00
23589;BME280;11972;48.078;11.876;2023-05-19T15:50:28;95509.97;;;21.16;100.00
23589;BME280;11972;48.078;11.876;2023-05-19T15:54:29;95514.50;;;21.32;100.00
23589;BME280;11972;48.078;11.876;2023-05-19T15:58:29;95507.84;;;19.83;100.00
23589;BME280;11972;48.078;11.876;2023-05-19T16:02:29;95504.16;;;19.44;100.00
23589;BME280;11972;48.078;11.876;2023-05-19T16:06:30;95502.25;;;19.56;100.00
23589;BME280;11972;48.078;11.876;2023-05-19T16:10:30;95495.34;;;20.17;100.00
23589;BME280;11972;48.078;11.876;2023-05-19T16:14:31;95489.25;;;20.39;100.00
23589;BME280;11972;48.078;11.876;2023-05-19T16:18:35;95488.25;;;20.11;100.00
23589;BME280;11972;48.078;11.876;2023-05-19T16:22:35;95480.44;;;19.93;100.00
23589;BME280;11972;48.078;11.876;2023-05-19T16:26:36;95468.44;;;20.12;100.00
23589;BME280;11972;48.078;11.876;2023-05-19T16:30:36;95474.31;;;19.52;100.00
23589;BME280;11972;48.078;11.876;2023-05-19T16:34:37;95470.50;;;19.76;100.00
23589;BME280;11972;48.078;11.876;2023-05-19T16:38:37;95466.31;;;19.40;100.00
23589;BME280;11972;48.078;11.876;2023-05-19T16:42:37;95465.84;;;19.03;100.00
23589;BME280;11972;48.078;11.876;2023-05-19T16:46:37;95458.69;;;18.45;100.00
23589;BME280;11972;48.078;11.876;2023-05-19T16:50:38;95457.13;;;18.02;100.00
23589;BME280;11972;48.078;11.876;2023-05-19T16:54:38;95464.00;;;18.21;100.00
23589;BME280;11972;48.078;11.876;2023-05-19T16:58:39;95449.13;;;18.25;100.00
23589;BME280;11972;48.078;11.876;2023-05-19T17:02:39;95447.47;;;18.01;100.00
23589;BME280;11972;48.078;11.876;2023-05-19T17:06:40;95440.88;;;18.03;100.00
23589;BME280;11972;48.078;11.876;2023-05-19T17:10:40;95438.78;;;18.17;100.00
23589;BME280;11972;48.078;11.876;2023-05-19T17:14:40;95444.03;;;17.70;100.00
23589;BME280;11972;48.078;11.876;2023-05-19T17:18:42;95436.38;;;17.44;100.00
23589;BME280;11972;48.078;11.876;2023-05-19T17:22:43;95445.38;;;17.49;100.00
23589;BME280;11972;48.078;11.876;2023-05-19T17:26:43;95440.56;;;17.40;100.00
23589;BME280;11972;48.078;11.876;2023-05-19T17:30:43;95452.03;;;17.10;100.00
23589;BME280;11972;48.078;11.876;2023-05-19T17:34:44;95448.19;;;17.06;100.00
23589;BME280;11972;48.078;11.876;2023-05-19T17:38:44;95449.22;;;17.05;100.00
23589;BME280;11972;48.078;11.876;2023-05-19T17:42:45;95440.41;;;16.86;100.00
23589;BME280;11972;48.078;11.876;2023-05-19T17:46:45;95443.28;;;16.66;100.00
23589;BME280;11972;48.078;11.876;2023-05-19T17:50:46;95443.41;;;16.53;100.00
23589;BME280;11972;48.078;11.876;2023-05-19T17:54:47;95433.72;;;16.40;100.00
23589;BME280;11972;48.078;11.876;2023-05-19T17:58:48;95428.56;;;16.20;100.00
23589;BME280;11972;48.078;11.876;2023-05-19T18:02:49;95434.84;;;16.07;100.00
23589;BME280;11972;48.078;11.876;2023-05-19T18:06:50;95437.63;;;15.94;100.00
23589;BME280;11972;48.078;11.876;2023-05-19T18:10:51;95439.75;;;15.85;100.00
23589;BME280;11972;48.078;11.876;2023-05-19T18:14:52;95442.66;;;15.77;100.00
23589;BME280;11972;48.078;11.876;2023-05-19T18:18:52;95434.13;;;15.69;100.00
23589;BME280;11972;48.078;11.876;2023-05-19T18:22:52;95437.84;;;15.61;100.00
23589;BME280;11972;48.078;11.876;2023-05-19T18:26:52;95434.00;;;15.50;100.00
23589;BME280;11972;48.078;11.876;2023-05-19T18:31:00;95436.09;;;15.42;100.00
23589;BME280;11972;48.078;11.876;2023-05-19T18:35:01;95432.66;;;15.34;100.00
23589;BME280;11972;48.078;11.876;2023-05-19T18:39:02;95430.69;;;15.23;100.00
23589;BME280;11972;48.078;11.876;2023-05-19T18:43:03;95432.56;;;15.16;100.00
23589;BME280;11972;48.078;11.876;2023-05-19T18:47:04;95436.91;;;15.10;100.00
23589;BME280;11972;48.078;11.876;2023-05-19T18:51:05;95437.31;;;15.07;100.00
23589;BME280;11972;48.078;11.876;2023-05-19T18:55:06;95437.09;;;15.09;100.00
23589;BME280;11972;48.078;11.876;2023-05-19T18:59:07;95441.22;;;15.05;100.00
23589;BME280;11972;48.078;11.876;2023-05-19T19:03:08;95435.31;;;15.03;100.00
23589;BME280;11972;48.078;11.876;2023-05-19T19:07:10;95437.78;;;14.98;100.00
23589;BME280;11972;48.078;11.876;2023-05-19T19:11:11;95434.94;;;14.93;100.00
23589;BME280;11972;48.078;11.876;2023-05-19T19:15:11;95447.81;;;14.89;100.00
23589;BME280;11972;48.078;11.876;2023-05-19T19:19:12;95445.63;;;14.79;100.00
23589;BME280;11972;48.078;11.876;2023-05-19T19:23:12;95458.75;;;14.68;100.00
23589;BME280;11972;48.078;11.876;2023-05-19T19:27:12;95458.78;;;14.61;100.00
23589;BME280;11972;48.078;11.876;2023-05-19T19:31:16;95449.38;;;14.58;100.00
23589;BME280;11972;48.078;11.876;2023-05-19T19:35:17;95456.31;;;14.59;100.00
23589;BME280;11972;48.078;11.876;2023-05-19T19:39:19;95454.50;;;14.53;100.00
23589;BME280;11972;48.078;11.876;2023-05-19T19:43:19;95466.56;;;14.49;100.00
23589;BME280;11972;48.078;11.876;2023-05-19T19:47:19;95466.72;;;14.48;100.00
23589;BME280;11972;48.078;11.876;2023-05-19T19:51:20;95455.91;;;14.43;100.00
23589;BME280;11972;48.078;11.876;2023-05-19T19:55:20;95459.59;;;14.42;100.00
23589;BME280;11972;48.078;11.876;2023-05-19T19:59:21;95454.69;;;14.38;100.00
23589;BME280;11972;48.078;11.876;2023-05-19T20:03:21;95447.34;;;14.40;100.00
23589;BME280;11972;48.078;11.876;2023-05-19T20:07:21;95453.06;;;14.37;100.00
23589;BME280;11972;48.078;11.876;2023-05-19T20:11:23;95447.75;;;14.37;100.00
23589;BME280;11972;48.078;11.876;2023-05-19T20:15:25;95444.91;;;14.32;100.00
23589;BME280;11972;48.078;11.876;2023-05-19T20:19:26;95436.94;;;14.26;100.00
23589;BME280;11972;48.078;11.876;2023-05-19T20:23:26;95435.31;;;14.18;100.00
23589;BME280;11972;48.078;11.876;2023-05-19T20:27:26;95435.53;;;14.10;100.00
23589;BME280;11972;48.078;11.876;2023-05-19T20:31:27;95431.06;;;14.04;100.00
23589;BME280;11972;48.078;11.876;2023-05-19T20:35:27;95431.66;;;14.06;100.00
23589;BME280;11972;48.078;11.876;2023-05-19T20:39:28;95429.41;;;14.09;100.00
23589;BME280;11972;48.078;11.876;2023-05-19T20:43:30;95430.22;;;14.17;100.00
23589;BME280;11972;48.078;11.876;2023-05-19T20:47:31;95426.94;;;14.21;100.00
23589;BME280;11972;48.078;11.876;2023-05-19T20:51:32;95414.25;;;14.23;100.00
23589;BME280;11972;48.078;11.876;2023-05-19T20:55:32;95414.69;;;14.20;100.00
23589;BME280;11972;48.078;11.876;2023-05-19T20:59:35;95417.53;;;14.19;100.00
23589;BME280;11972;48.078;11.876;2023-05-19T21:03:35;95418.78;;;14.16;100.00
23589;BME280;11972;48.078;11.876;2023-05-19T21:07:35;95415.09;;;14.17;100.00
23589;BME280;11972;48.078;11.876;2023-05-19T21:11:36;95414.06;;;14.18;100.00
23589;BME280;11972;48.078;11.876;2023-05-19T21:15:36;95419.38;;;14.18;100.00
23589;BME280;11972;48.078;11.876;2023-05-19T21:19:36;95416.72;;;14.18;100.00